HBC weather

Mohall Municipal Airport
Mohall, North Dakota, United States

Public forecast

Using degrees Fahrenheit for public forecast. Weather courtesy of forecast.io.

METAR (pilot weather report)

Closest report is Minot Air Force Base, 22.3 nm (41.4 km) SSE. Retrieved 2019/07/19 06:56 UTC (1 hour ago):

KMIB 190656Z AUTO 24006KT 10SM FEW170 16/15 A2962 RMK AO2 SLP029 T01630145 $

TAF (pilot weather forecast)

Forecast is more than 6 hours old.

Closest forecast is Minot Air Force Base, 22.3 nm (41.4 km) SSE. Retrieved 2019/07/19 01:17 UTC (7 hours ago):

TAF KMIB 190100Z 1901/2007 25006KT 9999 SKC QNH2954INS BECMG 1918/1919 27015G20KT 9999 FEW090 QNH2969INS BECMG 2000/2001 27006KT 9999 FEW150 QNH2971INS TX25/1922Z TN16/1910Z